Time;durP1;ratioP1;P1;durP2;ratioP2;P2;SDS_P1;SDS_P2;PMS_P1;PMS_P2;Temp;Humidity;BMP_temperature;BMP_pressure;BME280_temperature;BME280_humidity;BME280_pressure;Samples;Min_cycle;Max_cycle;Signal;HPM_P1;HPM_P2
2021/07/13 00:01:45;;;;;;;22.17;14.07;;;;;;;;;;5961536;23;20044;-53
2021/07/13 00:04:11;;;;;;;;;;;;;;;;;;5961419;23;20042;-51
2021/07/13 00:06:38;;;;;;;24.70;13.82;;;;;;;;;;5963599;23;19918;-50
2021/07/13 00:09:05;;;;;;;19.63;13.60;;;;;;;;;;5989192;23;20120;-51
2021/07/13 00:11:31;;;;;;;23.60;14.32;;;;;;;;;;5960056;23;20047;-48
2021/07/13 00:13:59;;;;;;;20.67;13.25;;;;;;;;;;5963904;23;20039;-49
2021/07/13 00:16:26;;;;;;;21.77;13.68;;;;;;;;;;5960973;23;20038;-51
2021/07/13 00:18:54;;;;;;;22.08;14.07;;;;;;;;;;5966315;23;20038;-49
2021/07/13 00:21:20;;;;;;;19.95;13.48;;;;;;;;;;5963698;23;20053;-52
2021/07/13 00:23:47;;;;;;;21.05;13.70;;;;;;;;;;5968352;23;20026;-52
2021/07/13 00:26:15;;;;;;;26.20;14.02;;;;;;;;;;5961710;23;20046;-50
2021/07/13 00:28:42;;;;;;;22.42;13.48;;;;;;;;;;5965951;24;20162;-49
2021/07/13 00:31:10;;;;;;;22.73;13.20;;;;;;;;;;5963936;24;20050;-51
2021/07/13 00:33:37;;;;;;;20.33;14.05;;;;;;;;;;5970443;23;20045;-52
2021/07/13 00:36:03;;;;;;;18.60;12.80;;;;;;;;;;5961949;24;20045;-50
2021/07/13 00:38:30;;;;;;;22.25;12.35;;;;;;;;;;5964401;24;20050;-49
2021/07/13 00:40:56;;;;;;;17.60;12.05;;;;;;;;;;5963201;24;20049;-50
2021/07/13 00:43:23;;;;;;;19.13;12.15;;;;;;;;;;5965502;24;20041;-51
2021/07/13 00:45:49;;;;;;;20.67;13.30;;;;;;;;;;5962821;23;20026;-49
2021/07/13 00:48:18;;;;;;;18.95;12.18;;;;;;;;;;5966684;24;20045;-50
2021/07/13 00:50:45;;;;;;;20.77;11.35;;;;;;;;;;5963834;24;20046;-51
2021/07/13 00:53:11;;;;;;;19.75;12.20;;;;;;;;;;5963206;23;20031;-52
2021/07/13 00:55:38;;;;;;;20.92;12.02;;;;;;;;;;5966502;23;20038;-51
2021/07/13 00:58:04;;;;;;;21.60;12.38;;;;;;;;;;5965142;23;20046;-49
2021/07/13 01:00:32;;;;;;;20.67;11.57;;;;;;;;;;5965828;24;20036;-52
2021/07/13 01:03:01;;;;;;;20.43;12.47;;;;;;;;;;5961049;24;20046;-51
2021/07/13 01:05:31;;;;;;;18.50;11.77;;;;;;;;;;5964728;24;20045;-50
2021/07/13 01:08:02;;;;;;;23.27;12.93;;;;;;;;;;5963555;23;20038;-51
2021/07/13 01:10:31;;;;;;;19.50;12.25;;;;;;;;;;5964527;24;20034;-53
2021/07/13 01:13:06;;;;;;;19.88;12.85;;;;;;;;;;5961312;24;20034;-52
2021/07/13 01:15:35;;;;;;;17.42;11.60;;;;;;;;;;5965639;23;20034;-52
2021/07/13 01:18:03;;;;;;;17.27;11.20;;;;;;;;;;5962182;24;20030;-50
2021/07/13 01:20:56;;;;;;;16.77;11.35;;;;;;;;;;5964795;23;20045;-52
2021/07/13 01:23:26;;;;;;;15.50;10.27;;;;;;;;;;5960447;24;20030;-51
2021/07/13 01:26:01;;;;;;;14.60;9.73;;;;;;;;;;5966452;23;20038;-52
2021/07/13 01:28:30;;;;;;;14.88;10.68;;;;;;;;;;5961641;23;20030;-52
2021/07/13 01:30:58;;;;;;;19.45;12.20;;;;;;;;;;5965831;24;20030;-53
2021/07/13 01:33:27;;;;;;;17.45;11.52;;;;;;;;;;5964329;23;20030;-54
2021/07/13 01:35:56;;;;;;;16.85;11.38;;;;;;;;;;5964564;24;20040;-55
2021/07/13 01:38:24;;;;;;;17.15;11.43;;;;;;;;;;5959454;23;20034;-50
2021/07/13 01:40:51;;;;;;;;;;;;;;;;;;5966833;23;20042;-49
2021/07/13 01:43:18;;;;;;;17.40;10.82;;;;;;;;;;5960547;23;19917;-52
2021/07/13 01:45:46;;;;;;;15.88;10.70;;;;;;;;;;5964096;23;20038;-53
2021/07/13 01:48:12;;;;;;;18.17;11.10;;;;;;;;;;5960256;23;20030;-52
2021/07/13 01:50:42;;;;;;;15.73;10.70;;;;;;;;;;5964321;23;20125;-51
2021/07/13 01:53:08;;;;;;;18.67;11.10;;;;;;;;;;5966811;23;20090;-51
2021/07/13 01:55:35;;;;;;;19.15;10.23;;;;;;;;;;5962819;23;20098;-52
2021/07/13 01:58:02;;;;;;;17.10;11.00;;;;;;;;;;5964442;23;20061;-52
2021/07/13 02:00:29;;;;;;;14.57;10.07;;;;;;;;;;5963127;23;20045;-54
2021/07/13 02:02:57;;;;;;;16.23;9.88;;;;;;;;;;5968228;23;20039;-50
2021/07/13 02:05:23;;;;;;;17.67;10.82;;;;;;;;;;5963550;24;20139;-49
2021/07/13 02:07:51;;;;;;;19.40;10.63;;;;;;;;;;5967381;24;20035;-48
2021/07/13 02:10:18;;;;;;;20.15;11.30;;;;;;;;;;5963349;24;20038;-48
2021/07/13 02:12:44;;;;;;;19.27;11.20;;;;;;;;;;5966865;23;20023;-52
2021/07/13 02:15:11;;;;;;;17.58;11.27;;;;;;;;;;5964911;24;20034;-52
2021/07/13 02:17:38;;;;;;;18.92;11.68;;;;;;;;;;5968865;23;20031;-54
2021/07/13 02:20:07;;;;;;;17.67;11.70;;;;;;;;;;5955064;24;20040;-51
2021/07/13 02:22:34;;;;;;;17.45;11.05;;;;;;;;;;5964467;24;20054;-52
2021/07/13 02:25:00;;;;;;;15.70;11.00;;;;;;;;;;5963822;24;20026;-56
2021/07/13 02:27:30;;;;;;;18.30;11.27;;;;;;;;;;5964991;24;20045;-55
2021/07/13 02:29:58;;;;;;;18.48;10.80;;;;;;;;;;5962637;24;20050;-54
2021/07/13 02:32:26;;;;;;;17.88;11.57;;;;;;;;;;5965772;24;20031;-53
2021/07/13 02:34:54;;;;;;;16.58;11.30;;;;;;;;;;5986617;23;20057;-56
2021/07/13 02:37:22;;;;;;;20.05;11.75;;;;;;;;;;5967188;23;20030;-49
2021/07/13 02:39:49;;;;;;;19.95;12.38;;;;;;;;;;5965457;24;20034;-53
2021/07/13 02:42:15;;;;;;;19.42;12.40;;;;;;;;;;5963348;23;20030;-55
2021/07/13 02:44:42;;;;;;;20.27;12.38;;;;;;;;;;5967605;23;20030;-52
2021/07/13 02:47:10;;;;;;;21.50;12.68;;;;;;;;;;5986207;23;20184;-54
2021/07/13 02:49:43;;;;;;;19.10;12.23;;;;;;;;;;5965224;24;20030;-55
2021/07/13 02:52:11;;;;;;;20.85;13.93;;;;;;;;;;5960724;24;20102;-54
2021/07/13 02:54:41;;;;;;;26.25;12.90;;;;;;;;;;5966741;24;20042;-54
2021/07/13 02:57:08;;;;;;;22.13;13.05;;;;;;;;;;5964252;23;20049;-52
2021/07/13 02:59:37;;;;;;;21.83;14.30;;;;;;;;;;5965528;24;20030;-49
2021/07/13 03:02:04;;;;;;;28.90;14.32;;;;;;;;;;5963183;24;20120;-48
2021/07/13 03:04:31;;;;;;;20.75;13.70;;;;;;;;;;5989131;23;20038;-52
2021/07/13 03:06:57;;;;;;;23.60;14.15;;;;;;;;;;5965701;23;20038;-53
2021/07/13 03:09:27;;;;;;;20.38;13.30;;;;;;;;;;5965085;24;20049;-50
2021/07/13 03:11:55;;;;;;;20.58;12.90;;;;;;;;;;5963545;23;20027;-52
2021/07/13 03:14:25;;;;;;;21.75;14.35;;;;;;;;;;5965744;24;20027;-53
2021/07/13 03:16:52;;;;;;;23.42;14.52;;;;;;;;;;5962877;24;20058;-51
2021/07/13 03:19:19;;;;;;;28.67;14.88;;;;;;;;;;5966480;24;20035;-52
2021/07/13 03:21:49;;;;;;;22.83;14.40;;;;;;;;;;5961846;24;20030;-54
2021/07/13 03:24:16;;;;;;;22.73;14.45;;;;;;;;;;5965792;24;20046;-55
2021/07/13 03:26:44;;;;;;;25.75;14.80;;;;;;;;;;5987618;23;20059;-53
2021/07/13 03:29:13;;;;;;;25.70;14.02;;;;;;;;;;5963173;23;20121;-51
2021/07/13 03:31:41;;;;;;;23.67;14.13;;;;;;;;;;5967504;23;20026;-49
2021/07/13 03:34:08;;;;;;;21.02;14.13;;;;;;;;;;5966875;23;20121;-54
2021/07/13 03:36:34;;;;;;;21.73;14.63;;;;;;;;;;5990543;23;20114;-51
2021/07/13 03:39:01;;;;;;;23.73;14.57;;;;;;;;;;5961510;24;20038;-50
2021/07/13 03:41:29;;;;;;;22.67;14.18;;;;;;;;;;5968367;24;20034;-54
2021/07/13 03:43:56;;;;;;;23.73;14.47;;;;;;;;;;5966274;23;20026;-52
2021/07/13 03:46:25;;;;;;;22.38;13.93;;;;;;;;;;5966650;24;20124;-48
2021/07/13 03:48:55;;;;;;;23.88;15.35;;;;;;;;;;5960258;23;20030;-53
2021/07/13 03:51:25;;;;;;;25.55;15.25;;;;;;;;;;5967008;23;20035;-50
2021/07/13 03:53:52;;;;;;;28.85;16.63;;;;;;;;;;5963287;23;20038;-57
2021/07/13 03:56:18;;;;;;;24.00;15.88;;;;;;;;;;5963403;23;20070;-50
2021/07/13 03:58:45;;;;;;;26.13;15.10;;;;;;;;;;5960349;23;20116;-51
2021/07/13 04:01:11;;;;;;;25.92;16.55;;;;;;;;;;5964822;23;20044;-49
2021/07/13 04:03:39;;;;;;;23.17;15.45;;;;;;;;;;5987590;23;20086;-53
2021/07/13 04:06:09;;;;;;;27.75;16.48;;;;;;;;;;5964697;23;20038;-54
2021/07/13 04:08:35;;;;;;;27.65;15.73;;;;;;;;;;5960975;23;20049;-51
2021/07/13 04:11:02;;;;;;;28.30;17.08;;;;;;;;;;5989760;23;20038;-52
2021/07/13 04:13:28;;;;;;;24.98;15.93;;;;;;;;;;5967728;23;20031;-54
2021/07/13 04:15:55;;;;;;;29.35;15.88;;;;;;;;;;5961996;23;20042;-53
2021/07/13 04:18:21;;;;;;;24.50;16.20;;;;;;;;;;5965440;24;20038;-54
2021/07/13 04:20:50;;;;;;;24.88;15.30;;;;;;;;;;5961930;24;20034;-54
2021/07/13 04:23:16;;;;;;;28.58;16.67;;;;;;;;;;5968554;23;20030;-52
2021/07/13 04:25:43;;;;;;;28.23;17.70;;;;;;;;;;5963270;24;20057;-49
2021/07/13 04:28:09;;;;;;;28.40;17.88;;;;;;;;;;5964142;24;20093;-54
2021/07/13 04:30:37;;;;;;;27.08;16.77;;;;;;;;;;5964549;23;20050;-53
2021/07/13 04:33:04;;;;;;;31.65;17.42;;;;;;;;;;5964627;24;20026;-51
2021/07/13 04:35:31;;;;;;;25.50;16.55;;;;;;;;;;5960682;24;20037;-52
2021/07/13 04:37:58;;;;;;;30.77;17.80;;;;;;;;;;5965566;24;20030;-50
2021/07/13 04:40:25;;;;;;;33.65;17.67;;;;;;;;;;5962682;24;20030;-53
2021/07/13 04:42:52;;;;;;;31.50;17.95;;;;;;;;;;5967604;24;20038;-53
2021/07/13 04:45:19;;;;;;;31.08;18.25;;;;;;;;;;5962174;24;20049;-51
2021/07/13 04:47:45;;;;;;;35.17;18.90;;;;;;;;;;5965300;24;20026;-50
2021/07/13 04:50:16;;;;;;;31.90;17.75;;;;;;;;;;5963567;24;20053;-54
2021/07/13 04:52:42;;;;;;;37.53;19.00;;;;;;;;;;5989381;23;20038;-55
2021/07/13 04:55:12;;;;;;;35.10;20.00;;;;;;;;;;5966435;24;20085;-55
2021/07/13 04:57:39;;;;;;;40.00;19.92;;;;;;;;;;5960025;23;20031;-52
2021/07/13 05:00:07;;;;;;;35.53;20.92;;;;;;;;;;5965341;24;20041;-49
2021/07/13 05:02:34;;;;;;;;;;;;;;;;;;5962736;23;20034;-52
2021/07/13 05:05:00;;;;;;;34.63;19.20;;;;;;;;;;5963499;24;19924;-49
2021/07/13 05:07:27;;;;;;;36.83;20.08;;;;;;;;;;5963440;24;20034;-51
2021/07/13 05:09:54;;;;;;;40.75;21.13;;;;;;;;;;5964248;24;20050;-50
2021/07/13 05:12:24;;;;;;;39.78;20.67;;;;;;;;;;5963330;24;20039;-52
2021/07/13 05:14:50;;;;;;;39.15;21.23;;;;;;;;;;5996379;23;20042;-52
2021/07/13 05:17:17;;;;;;;47.05;21.02;;;;;;;;;;5972482;23;20030;-50
2021/07/13 05:19:48;;;;;;;42.95;19.77;;;;;;;;;;5973307;23;20042;-54
2021/07/13 05:22:14;;;;;;;37.47;20.30;;;;;;;;;;5973486;23;20030;-52
2021/07/13 05:24:41;;;;;;;44.40;21.02;;;;;;;;;;5974704;23;20045;-51
2021/07/13 05:27:11;;;;;;;40.97;21.50;;;;;;;;;;5973196;23;20034;-53
2021/07/13 05:29:41;;;;;;;48.25;22.52;;;;;;;;;;5976533;23;20038;-51
2021/07/13 05:32:08;;;;;;;44.90;22.77;;;;;;;;;;5971416;23;20041;-50
2021/07/13 05:34:34;;;;;;;43.97;22.23;;;;;;;;;;5971487;23;20053;-53
2021/07/13 05:37:01;;;;;;;51.30;22.48;;;;;;;;;;5977830;23;20075;-51
2021/07/13 05:39:28;;;;;;;50.05;23.60;;;;;;;;;;5977308;23;20041;-51
2021/07/13 05:41:57;;;;;;;44.47;23.33;;;;;;;;;;5977876;23;20074;-51
2021/07/13 05:44:24;;;;;;;50.08;24.58;;;;;;;;;;5968198;23;20038;-51
2021/07/13 05:46:52;;;;;;;50.60;24.25;;;;;;;;;;5982031;23;20124;-50
2021/07/13 05:49:19;;;;;;;49.58;24.55;;;;;;;;;;5971183;23;20120;-49
2021/07/13 05:51:45;;;;;;;48.70;24.58;;;;;;;;;;5967299;23;20038;-52
2021/07/13 05:54:14;;;;;;;52.40;24.42;;;;;;;;;;5969021;23;20042;-52
2021/07/13 05:56:41;;;;;;;52.45;26.25;;;;;;;;;;5981672;23;20052;-53
2021/07/13 05:59:10;;;;;;;56.22;25.10;;;;;;;;;;5973658;23;20038;-53
2021/07/13 06:01:37;;;;;;;55.22;25.83;;;;;;;;;;5974890;23;20124;-50
2021/07/13 06:04:08;;;;;;;55.97;26.02;;;;;;;;;;5964623;23;20035;-56
2021/07/13 06:06:34;;;;;;;59.40;27.35;;;;;;;;;;5971702;24;20034;-55
2021/07/13 06:09:00;;;;;;;58.67;28.13;;;;;;;;;;5969538;23;20022;-48
2021/07/13 06:11:27;;;;;;;51.63;24.70;;;;;;;;;;5973739;23;20033;-55
2021/07/13 06:13:53;;;;;;;55.90;27.10;;;;;;;;;;5981870;23;20030;-51
2021/07/13 06:16:20;;;;;;;55.58;26.40;;;;;;;;;;5969047;23;20062;-51
2021/07/13 06:18:46;;;;;;;57.75;27.08;;;;;;;;;;5961756;23;20034;-50
2021/07/13 06:21:14;;;;;;;58.78;27.20;;;;;;;;;;5964177;23;20034;-54
2021/07/13 06:23:40;;;;;;;60.45;30.23;;;;;;;;;;5964180;23;20034;-51
2021/07/13 06:26:07;;;;;;;54.42;25.63;;;;;;;;;;5960238;23;20292;-52
2021/07/13 06:28:33;;;;;;;58.53;26.70;;;;;;;;;;5964028;23;20046;-50
2021/07/13 06:31:00;;;;;;;56.83;27.90;;;;;;;;;;5963319;23;20034;-48
2021/07/13 06:33:26;;;;;;;57.58;26.50;;;;;;;;;;5964535;23;20039;-52
2021/07/13 06:35:52;;;;;;;55.35;26.00;;;;;;;;;;5964076;23;20042;-50
2021/07/13 06:38:20;;;;;;;58.72;28.40;;;;;;;;;;5964148;23;20117;-55
2021/07/13 06:40:47;;;;;;;57.50;28.13;;;;;;;;;;5961385;23;20082;-48
2021/07/13 06:43:13;;;;;;;65.20;28.58;;;;;;;;;;5967236;23;20027;-49
2021/07/13 06:45:40;;;;;;;59.58;28.60;;;;;;;;;;5962825;23;20040;-50
2021/07/13 06:48:07;;;;;;;63.33;29.42;;;;;;;;;;5966599;24;20073;-53
2021/07/13 06:50:35;;;;;;;62.40;30.75;;;;;;;;;;5973219;23;20035;-48
2021/07/13 06:53:01;;;;;;;61.35;29.27;;;;;;;;;;5938951;23;20042;-50
2021/07/13 06:55:30;;;;;;;58.55;27.85;;;;;;;;;;5942447;24;20125;-54
2021/07/13 06:57:56;;;;;;;;;;;;;;;;;;5967776;24;20049;-53
2021/07/13 07:00:22;;;;;;;56.25;25.75;;;;;;;;;;5961419;24;19914;-48
2021/07/13 07:02:49;;;;;;;55.72;28.33;;;;;;;;;;5965905;24;20041;-52
2021/07/13 07:05:16;;;;;;;63.13;27.70;;;;;;;;;;5964317;24;20030;-47
2021/07/13 07:07:43;;;;;;;60.55;28.88;;;;;;;;;;5963517;23;20071;-50
2021/07/13 07:10:12;;;;;;;53.03;26.58;;;;;;;;;;5965420;24;20090;-53
2021/07/13 07:12:40;;;;;;;58.92;26.88;;;;;;;;;;5965467;23;20038;-51
2021/07/13 07:15:06;;;;;;;60.65;26.65;;;;;;;;;;5989947;23;20030;-52
2021/07/13 07:17:33;;;;;;;66.30;28.02;;;;;;;;;;5986292;23;20031;-52
2021/07/13 07:20:01;;;;;;;54.63;26.73;;;;;;;;;;5967347;24;20165;-52
2021/07/13 07:22:27;;;;;;;58.65;27.92;;;;;;;;;;5964519;23;20319;-52
2021/07/13 07:24:55;;;;;;;56.50;28.02;;;;;;;;;;5967442;24;20034;-53
2021/07/13 07:27:21;;;;;;;53.15;27.25;;;;;;;;;;5964022;24;20034;-55
2021/07/13 07:29:50;;;;;;;55.63;27.33;;;;;;;;;;5966798;24;20035;-56
2021/07/13 07:32:16;;;;;;;52.60;26.65;;;;;;;;;;5964207;24;20113;-53
2021/07/13 07:34:43;;;;;;;59.38;27.15;;;;;;;;;;5988871;23;20117;-55
2021/07/13 07:37:09;;;;;;;53.63;25.70;;;;;;;;;;5964132;24;20109;-48
2021/07/13 07:39:37;;;;;;;48.40;23.77;;;;;;;;;;5968813;23;20030;-52
2021/07/13 07:42:05;;;;;;;43.20;23.00;;;;;;;;;;5962025;24;20048;-54
2021/07/13 07:44:31;;;;;;;45.20;21.20;;;;;;;;;;5969219;23;20042;-55
2021/07/13 07:46:59;;;;;;;44.53;21.92;;;;;;;;;;5965190;24;20241;-51
2021/07/13 07:49:26;;;;;;;44.90;21.67;;;;;;;;;;5965387;23;20028;-53
2021/07/13 07:51:52;;;;;;;42.55;21.33;;;;;;;;;;5967064;24;20050;-50
2021/07/13 07:54:19;;;;;;;42.85;22.60;;;;;;;;;;5964149;23;20045;-51
2021/07/13 07:56:45;;;;;;;45.63;21.30;;;;;;;;;;5967149;23;20037;-51
2021/07/13 07:59:13;;;;;;;44.38;21.58;;;;;;;;;;5962205;24;20046;-51
2021/07/13 08:01:39;;;;;;;47.28;21.50;;;;;;;;;;5965340;24;20030;-51
2021/07/13 08:04:07;;;;;;;44.58;21.60;;;;;;;;;;5963657;24;20046;-50
2021/07/13 08:06:33;;;;;;;40.53;20.10;;;;;;;;;;5967681;23;20031;-52
2021/07/13 08:09:00;;;;;;;39.40;18.83;;;;;;;;;;5963264;24;20026;-50
2021/07/13 08:11:26;;;;;;;33.05;17.92;;;;;;;;;;5966180;23;20041;-52
2021/07/13 08:13:53;;;;;;;34.97;18.63;;;;;;;;;;5964997;23;20124;-54
2021/07/13 08:16:19;;;;;;;34.58;18.38;;;;;;;;;;5965620;24;20027;-53
2021/07/13 08:18:48;;;;;;;36.17;19.25;;;;;;;;;;5962293;23;20085;-50
2021/07/13 08:21:19;;;;;;;157.25;22.13;;;;;;;;;;5966520;24;20078;-49
2021/07/13 08:23:46;;;;;;;59.88;19.83;;;;;;;;;;5963211;24;20101;-55
2021/07/13 08:26:14;;;;;;;60.63;19.33;;;;;;;;;;5967258;24;20027;-54
2021/07/13 08:28:42;;;;;;;39.05;20.08;;;;;;;;;;5965158;23;20062;-50
2021/07/13 08:31:08;;;;;;;38.33;19.90;;;;;;;;;;5966207;24;20082;-51
2021/07/13 08:33:35;;;;;;;147.65;21.50;;;;;;;;;;5952739;24;20038;-49
2021/07/13 08:36:01;;;;;;;127.05;20.73;;;;;;;;;;5961716;24;20034;-52
2021/07/13 08:38:29;;;;;;;39.00;18.98;;;;;;;;;;5965519;24;20026;-55
2021/07/13 08:40:56;;;;;;;34.42;18.60;;;;;;;;;;5963060;24;20049;-51
2021/07/13 08:43:23;;;;;;;32.72;17.02;;;;;;;;;;5967511;24;20042;-54
2021/07/13 08:45:52;;;;;;;33.03;18.20;;;;;;;;;;5962102;24;20030;-50
2021/07/13 08:48:19;;;;;;;32.28;17.15;;;;;;;;;;5964635;23;20042;-53
2021/07/13 08:50:45;;;;;;;30.10;16.58;;;;;;;;;;5963864;24;20121;-53
2021/07/13 08:53:12;;;;;;;34.78;18.30;;;;;;;;;;5966555;23;20034;-54
2021/07/13 08:55:40;;;;;;;32.65;16.48;;;;;;;;;;5963273;24;20082;-52
2021/07/13 08:58:07;;;;;;;36.85;17.20;;;;;;;;;;5964253;24;20030;-50
2021/07/13 09:00:34;;;;;;;29.77;16.52;;;;;;;;;;5961818;23;20030;-53
2021/07/13 09:03:05;;;;;;;34.88;18.13;;;;;;;;;;5965377;24;20042;-49
2021/07/13 09:05:39;;;;;;;37.15;18.60;;;;;;;;;;5984499;23;20030;-52
2021/07/13 09:08:10;;;;;;;33.13;17.77;;;;;;;;;;5965762;23;20113;-49
2021/07/13 09:10:37;;;;;;;31.88;17.42;;;;;;;;;;5961067;23;20042;-54
2021/07/13 09:13:05;;;;;;;31.48;16.90;;;;;;;;;;5966987;23;20042;-51
2021/07/13 09:15:31;;;;;;;29.88;15.40;;;;;;;;;;5966142;23;20047;-53
2021/07/13 09:17:58;;;;;;;31.83;16.70;;;;;;;;;;5964745;24;20042;-53
2021/07/13 09:20:27;;;;;;;32.15;17.35;;;;;;;;;;5966777;24;20046;-52
2021/07/13 09:22:55;;;;;;;27.33;15.90;;;;;;;;;;5961384;24;20112;-53
2021/07/13 09:25:26;;;;;;;33.17;16.10;;;;;;;;;;5967783;23;20045;-50
2021/07/13 09:28:22;;;;;;;35.17;16.33;;;;;;;;;;5965305;23;20030;-51
2021/07/13 09:30:50;;;;;;;38.88;18.70;;;;;;;;;;5966552;24;20039;-51
2021/07/13 09:33:17;;;;;;;34.75;17.55;;;;;;;;;;5962262;23;20034;-50
2021/07/13 09:36:01;;;;;;;37.60;17.52;;;;;;;;;;5964200;24;20041;-51
2021/07/13 09:38:29;;;;;;;33.60;16.20;;;;;;;;;;5962449;23;20044;-47
2021/07/13 09:41:02;;;;;;;35.90;18.27;;;;;;;;;;5966232;24;20041;-48
2021/07/13 09:43:40;;;;;;;33.15;17.48;;;;;;;;;;5961514;24;20119;-50
2021/07/13 09:46:21;;;;;;;33.57;16.60;;;;;;;;;;5965602;24;20030;-52
2021/07/13 09:49:05;;;;;;;35.40;18.10;;;;;;;;;;5963930;23;20034;-48
2021/07/13 09:51:32;;;;;;;34.38;17.08;;;;;;;;;;5964571;23;20030;-49
2021/07/13 09:53:58;;;;;;;34.63;18.35;;;;;;;;;;5961289;23;20084;-50
2021/07/13 09:56:37;;;;;;;36.08;18.77;;;;;;;;;;5965102;23;20034;-48
2021/07/13 09:59:06;;;;;;;37.67;19.30;;;;;;;;;;5962623;24;20026;-49
2021/07/13 10:01:33;;;;;;;40.88;18.08;;;;;;;;;;5968015;24;20037;-50
2021/07/13 10:04:00;;;;;;;32.92;17.90;;;;;;;;;;5964975;24;20117;-52
2021/07/13 10:06:27;;;;;;;29.63;16.52;;;;;;;;;;5967749;24;20035;-51
2021/07/13 10:08:54;;;;;;;33.80;16.25;;;;;;;;;;5962302;24;20120;-51
2021/07/13 10:11:20;;;;;;;29.90;16.33;;;;;;;;;;5956655;24;20034;-49
2021/07/13 10:13:47;;;;;;;29.77;15.57;;;;;;;;;;5960566;24;20136;-51
2021/07/13 10:16:15;;;;;;;29.45;16.00;;;;;;;;;;5964108;24;20094;-52
2021/07/13 10:18:43;;;;;;;29.80;15.73;;;;;;;;;;5962248;24;20034;-54
2021/07/13 10:21:10;;;;;;;24.20;13.73;;;;;;;;;;5966756;23;20057;-50
2021/07/13 10:23:36;;;;;;;25.48;14.73;;;;;;;;;;5963791;24;20038;-51
2021/07/13 10:26:03;;;;;;;23.10;13.30;;;;;;;;;;5966223;24;20034;-51
2021/07/13 10:28:32;;;;;;;26.63;13.38;;;;;;;;;;5960686;24;20037;-53
2021/07/13 10:30:59;;;;;;;22.90;13.13;;;;;;;;;;5965911;24;20034;-55
2021/07/13 10:33:31;;;;;;;23.40;13.32;;;;;;;;;;5965662;23;20113;-50
2021/07/13 10:36:17;;;;;;;26.48;14.75;;;;;;;;;;5964829;23;20044;-52
2021/07/13 10:38:44;;;;;;;24.85;13.80;;;;;;;;;;5964534;24;20166;-50
2021/07/13 10:41:12;;;;;;;27.77;14.45;;;;;;;;;;5965508;24;20053;-53
2021/07/13 10:43:45;;;;;;;22.67;11.73;;;;;;;;;;5965050;24;20058;-52
2021/07/13 10:46:12;;;;;;;21.15;11.95;;;;;;;;;;5964283;23;20046;-53
2021/07/13 10:48:41;;;;;;;21.20;10.98;;;;;;;;;;5965356;24;20055;-52
2021/07/13 10:51:08;;;;;;;41.83;12.63;;;;;;;;;;5965145;23;20038;-53
2021/07/13 10:53:38;;;;;;;73.70;13.65;;;;;;;;;;5967155;24;20047;-51
2021/07/13 10:56:23;;;;;;;38.28;13.80;;;;;;;;;;5961529;24;20037;-53
2021/07/13 10:58:51;;;;;;;19.90;11.88;;;;;;;;;;5947623;24;20116;-54
2021/07/13 11:01:20;;;;;;;23.30;12.57;;;;;;;;;;5966511;23;20038;-52
2021/07/13 11:04:09;;;;;;;22.35;12.65;;;;;;;;;;5967456;24;20047;-50
2021/07/13 11:06:41;;;;;;;25.00;12.02;;;;;;;;;;5961652;23;20038;-50
2021/07/13 11:09:21;;;;;;;26.60;12.82;;;;;;;;;;5965980;24;20034;-51
2021/07/13 11:11:48;;;;;;;30.27;12.90;;;;;;;;;;5963320;24;20042;-51
2021/07/13 11:14:16;;;;;;;37.05;13.35;;;;;;;;;;5966713;23;20026;-50
2021/07/13 11:16:43;;;;;;;30.45;13.57;;;;;;;;;;5962617;24;20059;-52
2021/07/13 11:19:12;;;;;;;22.83;12.50;;;;;;;;;;5966075;24;20042;-47
2021/07/13 11:21:41;;;;;;;24.30;12.45;;;;;;;;;;5961054;24;20038;-50
2021/07/13 11:24:11;;;;;;;26.90;12.85;;;;;;;;;;5963968;24;20037;-48
2021/07/13 11:26:39;;;;;;;30.05;12.15;;;;;;;;;;5961336;24;20034;-53
2021/07/13 11:29:07;;;;;;;21.10;12.55;;;;;;;;;;5966143;24;20030;-50
2021/07/13 11:31:35;;;;;;;23.73;13.02;;;;;;;;;;5963009;24;20034;-55
2021/07/13 11:34:05;;;;;;;27.38;13.52;;;;;;;;;;5966533;24;20046;-51
2021/07/13 11:36:33;;;;;;;25.05;13.43;;;;;;;;;;5966039;23;20030;-48
2021/07/13 11:39:06;;;;;;;28.85;14.00;;;;;;;;;;5967640;24;20109;-48
2021/07/13 11:41:32;;;;;;;29.95;15.55;;;;;;;;;;5964012;24;20045;-48
2021/07/13 11:44:01;;;;;;;33.10;16.17;;;;;;;;;;5963778;24;20041;-49
2021/07/13 11:46:28;;;;;;;31.27;15.90;;;;;;;;;;5965296;23;20054;-54
2021/07/13 11:48:56;;;;;;;34.22;18.23;;;;;;;;;;5965586;24;20030;-52
2021/07/13 11:51:22;;;;;;;;;;;;;;;;;;5966033;24;20108;-51
2021/07/13 11:53:56;;;;;;;39.17;17.88;;;;;;;;;;5960526;24;19925;-52
2021/07/13 11:56:26;;;;;;;39.03;17.80;;;;;;;;;;5965409;24;20030;-52
2021/07/13 11:58:53;;;;;;;42.58;18.85;;;;;;;;;;5961851;23;20030;-52
2021/07/13 12:01:21;;;;;;;37.28;17.42;;;;;;;;;;5964977;23;20030;-53
2021/07/13 12:03:47;;;;;;;40.75;18.50;;;;;;;;;;5963165;24;20044;-54
2021/07/13 12:06:15;;;;;;;39.67;17.92;;;;;;;;;;5988514;23;20030;-53
2021/07/13 12:08:42;;;;;;;44.28;19.42;;;;;;;;;;5962553;24;20106;-54
2021/07/13 12:11:08;;;;;;;41.40;19.17;;;;;;;;;;5966966;23;20038;-50
2021/07/13 12:13:38;;;;;;;42.22;18.70;;;;;;;;;;5960689;24;20142;-54
2021/07/13 12:16:15;;;;;;;38.28;18.23;;;;;;;;;;5964721;24;20085;-49
2021/07/13 12:18:43;;;;;;;48.72;21.77;;;;;;;;;;5960615;24;20102;-50
2021/07/13 12:21:12;;;;;;;41.53;19.33;;;;;;;;;;5966130;24;20038;-55
2021/07/13 12:23:39;;;;;;;39.50;19.45;;;;;;;;;;5959030;23;20041;-53
2021/07/13 12:26:20;;;;;;;38.67;19.63;;;;;;;;;;5963574;23;20030;-55
2021/07/13 12:29:00;;;;;;;43.70;21.70;;;;;;;;;;5948724;23;20034;-53
2021/07/13 12:31:27;;;;;;;40.97;21.20;;;;;;;;;;5964743;24;20054;-53
2021/07/13 12:33:54;;;;;;;49.03;23.08;;;;;;;;;;5961863;24;20031;-54
2021/07/13 12:36:24;;;;;;;46.28;21.27;;;;;;;;;;5969592;23;20109;-54
2021/07/13 12:38:51;;;;;;;40.92;20.15;;;;;;;;;;5962825;24;20026;-51
2021/07/13 12:41:18;;;;;;;40.22;18.90;;;;;;;;;;5966919;24;20026;-56
2021/07/13 12:43:45;;;;;;;45.95;22.90;;;;;;;;;;5961581;23;20045;-51
2021/07/13 12:46:26;;;;;;;37.60;20.48;;;;;;;;;;5964486;24;20041;-56
2021/07/13 12:48:53;;;;;;;41.13;19.58;;;;;;;;;;5964392;23;20092;-51
2021/07/13 12:51:23;;;;;;;40.80;20.92;;;;;;;;;;5963053;24;20033;-51
2021/07/13 12:54:03;;;;;;;39.65;20.42;;;;;;;;;;5965731;24;20046;-55
2021/07/13 12:56:30;;;;;;;40.70;20.63;;;;;;;;;;5936462;24;20121;-52
2021/07/13 12:59:03;;;;;;;44.35;19.40;;;;;;;;;;5938047;24;20034;-53
2021/07/13 13:01:31;;;;;;;45.97;21.52;;;;;;;;;;5961723;23;20031;-49
2021/07/13 13:04:09;;;;;;;48.80;20.20;;;;;;;;;;5965370;23;20030;-54
2021/07/13 13:06:36;;;;;;;43.35;20.00;;;;;;;;;;5960944;23;20041;-51
2021/07/13 13:09:07;;;;;;;36.83;19.88;;;;;;;;;;5965212;24;20042;-52
2021/07/13 13:11:34;;;;;;;39.58;19.42;;;;;;;;;;5962495;24;20182;-54
2021/07/13 13:14:02;;;;;;;35.70;19.45;;;;;;;;;;5966860;24;20042;-54
2021/07/13 13:16:29;;;;;;;;;;;;;;;;;;5963854;24;20023;-51
2021/07/13 13:19:00;;;;;;;31.90;17.35;;;;;;;;;;5963866;24;19909;-52
2021/07/13 13:21:27;;;;;;;32.90;18.60;;;;;;;;;;5960379;24;20034;-51
2021/07/13 13:23:54;;;;;;;37.38;17.38;;;;;;;;;;5965598;23;20105;-54
2021/07/13 13:26:21;;;;;;;31.88;18.02;;;;;;;;;;5964006;24;20022;-56
2021/07/13 13:28:48;;;;;;;34.50;18.42;;;;;;;;;;5964933;24;20030;-56
2021/07/13 13:31:14;;;;;;;38.50;18.33;;;;;;;;;;5960212;24;20030;-53
2021/07/13 13:33:42;;;;;;;35.83;17.17;;;;;;;;;;5964439;24;20042;-56
2021/07/13 13:36:15;;;;;;;33.45;18.30;;;;;;;;;;5958201;23;20034;-52
2021/07/13 13:38:45;;;;;;;36.17;18.45;;;;;;;;;;5962923;23;20047;-54
2021/07/13 13:41:11;;;;;;;36.22;18.05;;;;;;;;;;5960581;23;20046;-55
2021/07/13 13:43:38;;;;;;;32.67;17.13;;;;;;;;;;5967076;23;20125;-53
2021/07/13 13:46:04;;;;;;;38.15;18.60;;;;;;;;;;5983395;23;20034;-53
2021/07/13 13:48:31;;;;;;;36.40;20.00;;;;;;;;;;5964307;23;20026;-53
2021/07/13 13:50:58;;;;;;;31.75;16.88;;;;;;;;;;5967221;23;20048;-54
2021/07/13 13:53:30;;;;;;;33.15;16.80;;;;;;;;;;5964934;23;20034;-53
2021/07/13 13:55:56;;;;;;;29.02;16.92;;;;;;;;;;5966363;24;20038;-56
2021/07/13 13:58:23;;;;;;;31.15;16.35;;;;;;;;;;5939313;24;20049;-54
2021/07/13 14:00:49;;;;;;;28.52;15.50;;;;;;;;;;5964609;24;20042;-56
2021/07/13 14:03:15;;;;;;;32.92;16.20;;;;;;;;;;5963441;24;20038;-55
2021/07/13 14:05:42;;;;;;;42.78;17.30;;;;;;;;;;5954677;24;20034;-54
2021/07/13 14:08:08;;;;;;;25.58;14.45;;;;;;;;;;5963637;24;20029;-53
2021/07/13 14:10:37;;;;;;;28.50;15.77;;;;;;;;;;5967498;24;20121;-56
2021/07/13 14:13:03;;;;;;;28.83;14.98;;;;;;;;;;5961804;24;20042;-56
2021/07/13 14:15:30;;;;;;;21.30;13.20;;;;;;;;;;5967823;24;20045;-51
2021/07/13 14:17:56;;;;;;;106.30;17.00;;;;;;;;;;5963616;24;20032;-54
2021/07/13 14:20:22;;;;;;;25.83;14.23;;;;;;;;;;5968028;23;20113;-51
2021/07/13 14:22:50;;;;;;;253.48;20.67;;;;;;;;;;5963883;24;20030;-53
2021/07/13 14:25:17;;;;;;;22.83;13.68;;;;;;;;;;5967037;23;20034;-53